Skelton, United Kingdom
Current Conditions -  °F | °C
As of 2:20 PM on Saturday 20 Dec 2014 (Local Time) from EGCN Reporting Station
Broken Clouds Broken Clouds  
Wind Chill: 41°   Ceiling: 2700
Heat Index: 48°   Visibility: 6mi
Dew Point: 39°   Wind: 21mph
Humidity: 71%   Direction: 280°W
Pressure: 30.24"   Gusts: NA
Location:  53.72°N, 0.83°W
Report Text: EGCN 201420Z 28018KT 9999 BKN027 09/04 Q1024
Loading
Personal Weather Stations






























Interactive Weather Map New forecast layout! Learn more

10-Day Weather Forecast

Advertisements
Track Severe Weather on mobile